Weather at Northern Colorado Regional Airport

Public forecast

Using degrees Fahrenheit for public forecast. Weather courtesy of forecast.io.

Current aviation weather report (METAR) for Northern Colorado Regional Airport

Retrieved 2020/09/28 14:56 UTC (38 minutes ago):

KFNL 281456Z 03005KT 10SM CLR 07/M01 A3046 RMK AO2 SLP305 T00721006 51010

Closest aviation forecast (TAF) to Northern Colorado Regional Airport

Forecast is more than 6 hours old.

Closest forecast is Rocky Mountain Metropolitan Airport, 33.0 nm (61.0 km) S. Retrieved 2020/09/28 06:39 UTC (9 hours ago):

TAF KBJC 280536Z 2806/2906 VRB06KT P6SM SCT110 FM281600 36011KT P6SM SKC FM290100 02008KT P6SM FEW220 FM290300 24007KT P6SM FEW220 AMD NOT SKED 2806/2809